Airport ID:KRTS
Update Time (UTC):20/01/2020 18:10
Wind Speed (Knots):1
Wind Direction (Magnetic):180
Temperature (°C):2
Dew Point (°C):-4
Humidity (%):59
Altimeter (inHg):30.11
Density Altitude (Feet):
Visibility (Miles):10+
Clouds (Hundreds of feet):FEW090 SCT110
Present Weather:
METAR:METAR KRTS 201810Z AUTO 00000KT 10SM FEW090 SCT110 02/M05 A3011 RMK AO2

The data displayed is for advisory purposes only and is not to be used for flight planning or operations.

This page is not automatically refreshed. Reload the page to see current data.